sensor_id;sensor_type;location;lat;lon;timestamp;P1;durP1;ratioP1;P2;durP2;ratioP2
23088;SDS011;11713;48.506;8.966;2023-08-06T00:01:01;3.28;;;2.97;;
23088;SDS011;11713;48.506;8.966;2023-08-06T00:03:26;4.40;;;3.13;;
23088;SDS011;11713;48.506;8.966;2023-08-06T00:05:52;3.20;;;2.90;;
23088;SDS011;11713;48.506;8.966;2023-08-06T00:08:18;4.53;;;3.27;;
23088;SDS011;11713;48.506;8.966;2023-08-06T00:10:44;4.80;;;3.17;;
23088;SDS011;11713;48.506;8.966;2023-08-06T00:13:09;3.13;;;2.83;;
23088;SDS011;11713;48.506;8.966;2023-08-06T00:15:35;3.65;;;2.65;;
23088;SDS011;11713;48.506;8.966;2023-08-06T00:18:01;3.40;;;3.07;;
23088;SDS011;11713;48.506;8.966;2023-08-06T00:20:27;4.37;;;3.07;;
23088;SDS011;11713;48.506;8.966;2023-08-06T00:22:52;3.20;;;2.90;;
23088;SDS011;11713;48.506;8.966;2023-08-06T00:25:18;5.03;;;3.13;;
23088;SDS011;11713;48.506;8.966;2023-08-06T00:27:44;3.63;;;3.33;;
23088;SDS011;11713;48.506;8.966;2023-08-06T00:30:10;5.73;;;3.50;;
23088;SDS011;11713;48.506;8.966;2023-08-06T00:32:36;5.03;;;3.17;;
23088;SDS011;11713;48.506;8.966;2023-08-06T00:35:02;3.27;;;2.97;;
23088;SDS011;11713;48.506;8.966;2023-08-06T00:37:29;3.47;;;3.17;;
23088;SDS011;11713;48.506;8.966;2023-08-06T00:39:55;4.07;;;3.33;;
23088;SDS011;11713;48.506;8.966;2023-08-06T00:42:20;3.17;;;2.63;;
23088;SDS011;11713;48.506;8.966;2023-08-06T00:44:47;4.77;;;3.13;;
23088;SDS011;11713;48.506;8.966;2023-08-06T00:47:13;3.30;;;3.00;;
23088;SDS011;11713;48.506;8.966;2023-08-06T00:49:40;3.20;;;2.90;;
23088;SDS011;11713;48.506;8.966;2023-08-06T00:52:06;2.90;;;2.60;;
23088;SDS011;11713;48.506;8.966;2023-08-06T00:54:35;4.27;;;2.93;;
23088;SDS011;11713;48.506;8.966;2023-08-06T00:57:02;3.47;;;2.77;;
23088;SDS011;11713;48.506;8.966;2023-08-06T00:59:28;5.07;;;2.60;;
23088;SDS011;11713;48.506;8.966;2023-08-06T01:01:56;3.27;;;2.80;;
23088;SDS011;11713;48.506;8.966;2023-08-06T01:04:22;2.83;;;2.53;;
23088;SDS011;11713;48.506;8.966;2023-08-06T01:06:48;2.77;;;2.30;;
23088;SDS011;11713;48.506;8.966;2023-08-06T01:12:06;2.70;;;1.87;;
23088;SDS011;11713;48.506;8.966;2023-08-06T01:17:40;2.47;;;2.17;;
23088;SDS011;11713;48.506;8.966;2023-08-06T01:20:06;3.47;;;1.97;;
23088;SDS011;11713;48.506;8.966;2023-08-06T01:22:32;3.40;;;1.97;;
23088;SDS011;11713;48.506;8.966;2023-08-06T01:24:58;2.57;;;2.20;;
23088;SDS011;11713;48.506;8.966;2023-08-06T01:30:33;1.87;;;1.60;;
23088;SDS011;11713;48.506;8.966;2023-08-06T01:33:04;3.10;;;1.80;;
23088;SDS011;11713;48.506;8.966;2023-08-06T01:35:33;2.97;;;2.00;;
23088;SDS011;11713;48.506;8.966;2023-08-06T01:38:00;2.33;;;1.67;;
23088;SDS011;11713;48.506;8.966;2023-08-06T01:40:29;3.73;;;1.87;;
23088;SDS011;11713;48.506;8.966;2023-08-06T01:42:56;3.33;;;1.70;;
23088;SDS011;11713;48.506;8.966;2023-08-06T01:45:22;2.70;;;2.20;;
23088;SDS011;11713;48.506;8.966;2023-08-06T01:47:48;2.83;;;2.00;;
23088;SDS011;11713;48.506;8.966;2023-08-06T01:50:14;2.67;;;1.80;;
23088;SDS011;11713;48.506;8.966;2023-08-06T01:52:40;2.33;;;1.83;;
23088;SDS011;11713;48.506;8.966;2023-08-06T01:55:06;4.80;;;2.07;;
23088;SDS011;11713;48.506;8.966;2023-08-06T01:57:32;3.50;;;2.30;;
23088;SDS011;11713;48.506;8.966;2023-08-06T01:59:58;2.37;;;2.00;;
23088;SDS011;11713;48.506;8.966;2023-08-06T02:02:24;3.67;;;1.93;;
23088;SDS011;11713;48.506;8.966;2023-08-06T02:04:49;3.43;;;2.17;;
23088;SDS011;11713;48.506;8.966;2023-08-06T02:07:15;3.90;;;2.03;;
23088;SDS011;11713;48.506;8.966;2023-08-06T02:09:41;2.83;;;2.13;;
23088;SDS011;11713;48.506;8.966;2023-08-06T02:12:07;2.83;;;2.33;;
23088;SDS011;11713;48.506;8.966;2023-08-06T02:14:33;4.33;;;2.20;;
23088;SDS011;11713;48.506;8.966;2023-08-06T02:17:00;3.03;;;2.10;;
23088;SDS011;11713;48.506;8.966;2023-08-06T02:19:27;2.40;;;2.20;;
23088;SDS011;11713;48.506;8.966;2023-08-06T02:21:53;4.50;;;2.00;;
23088;SDS011;11713;48.506;8.966;2023-08-06T02:24:18;2.10;;;1.80;;
23088;SDS011;11713;48.506;8.966;2023-08-06T02:26:44;2.77;;;2.10;;
23088;SDS011;11713;48.506;8.966;2023-08-06T02:29:11;3.30;;;1.93;;
23088;SDS011;11713;48.506;8.966;2023-08-06T02:31:37;2.17;;;1.93;;
23088;SDS011;11713;48.506;8.966;2023-08-06T02:34:04;3.97;;;1.90;;
23088;SDS011;11713;48.506;8.966;2023-08-06T02:36:30;3.87;;;2.23;;
23088;SDS011;11713;48.506;8.966;2023-08-06T02:38:58;4.80;;;2.47;;
23088;SDS011;11713;48.506;8.966;2023-08-06T02:41:24;2.77;;;2.17;;
23088;SDS011;11713;48.506;8.966;2023-08-06T02:43:49;3.70;;;2.10;;
23088;SDS011;11713;48.506;8.966;2023-08-06T02:46:15;5.20;;;2.07;;
23088;SDS011;11713;48.506;8.966;2023-08-06T02:48:41;2.33;;;1.83;;
23088;SDS011;11713;48.506;8.966;2023-08-06T02:51:07;3.27;;;2.03;;
23088;SDS011;11713;48.506;8.966;2023-08-06T02:53:33;4.53;;;2.10;;
23088;SDS011;11713;48.506;8.966;2023-08-06T02:56:03;2.57;;;2.13;;
23088;SDS011;11713;48.506;8.966;2023-08-06T02:58:55;1.90;;;1.70;;
23088;SDS011;11713;48.506;8.966;2023-08-06T03:01:32;2.47;;;2.10;;
23088;SDS011;11713;48.506;8.966;2023-08-06T03:04:06;2.83;;;1.90;;
23088;SDS011;11713;48.506;8.966;2023-08-06T03:06:36;2.57;;;1.73;;
23088;SDS011;11713;48.506;8.966;2023-08-06T03:09:03;2.57;;;1.90;;
23088;SDS011;11713;48.506;8.966;2023-08-06T03:11:29;3.07;;;2.30;;
23088;SDS011;11713;48.506;8.966;2023-08-06T03:14:00;3.43;;;2.00;;
23088;SDS011;11713;48.506;8.966;2023-08-06T03:16:26;1.90;;;1.70;;
23088;SDS011;11713;48.506;8.966;2023-08-06T03:18:53;1.90;;;1.70;;
23088;SDS011;11713;48.506;8.966;2023-08-06T03:21:20;4.43;;;1.90;;
23088;SDS011;11713;48.506;8.966;2023-08-06T03:23:49;2.97;;;1.93;;
23088;SDS011;11713;48.506;8.966;2023-08-06T03:26:17;4.60;;;1.80;;
23088;SDS011;11713;48.506;8.966;2023-08-06T03:28:43;4.03;;;1.80;;
23088;SDS011;11713;48.506;8.966;2023-08-06T03:31:09;2.70;;;1.87;;
23088;SDS011;11713;48.506;8.966;2023-08-06T03:33:40;3.37;;;1.90;;
23088;SDS011;11713;48.506;8.966;2023-08-06T03:36:11;3.10;;;2.03;;
23088;SDS011;11713;48.506;8.966;2023-08-06T03:38:36;4.83;;;1.90;;
23088;SDS011;11713;48.506;8.966;2023-08-06T03:41:05;1.77;;;1.53;;
23088;SDS011;11713;48.506;8.966;2023-08-06T03:43:31;1.93;;;1.60;;
23088;SDS011;11713;48.506;8.966;2023-08-06T03:45:58;4.17;;;1.90;;
23088;SDS011;11713;48.506;8.966;2023-08-06T03:48:24;2.60;;;1.83;;
23088;SDS011;11713;48.506;8.966;2023-08-06T03:50:50;2.23;;;1.53;;
23088;SDS011;11713;48.506;8.966;2023-08-06T03:53:17;3.50;;;1.77;;
23088;SDS011;11713;48.506;8.966;2023-08-06T03:55:44;4.33;;;1.60;;
23088;SDS011;11713;48.506;8.966;2023-08-06T03:58:10;3.00;;;1.50;;
23088;SDS011;11713;48.506;8.966;2023-08-06T04:00:35;4.57;;;1.70;;
23088;SDS011;11713;48.506;8.966;2023-08-06T04:03:01;3.10;;;1.60;;
23088;SDS011;11713;48.506;8.966;2023-08-06T04:05:30;3.17;;;1.40;;
23088;SDS011;11713;48.506;8.966;2023-08-06T04:07:57;3.73;;;1.90;;
23088;SDS011;11713;48.506;8.966;2023-08-06T04:10:23;3.50;;;1.50;;
23088;SDS011;11713;48.506;8.966;2023-08-06T04:12:49;3.00;;;1.40;;
23088;SDS011;11713;48.506;8.966;2023-08-06T04:15:15;4.27;;;1.30;;
23088;SDS011;11713;48.506;8.966;2023-08-06T04:17:40;2.47;;;1.33;;
23088;SDS011;11713;48.506;8.966;2023-08-06T04:20:06;1.80;;;1.20;;
23088;SDS011;11713;48.506;8.966;2023-08-06T04:22:32;1.27;;;1.00;;
23088;SDS011;11713;48.506;8.966;2023-08-06T04:24:58;2.83;;;1.20;;
23088;SDS011;11713;48.506;8.966;2023-08-06T04:27:24;1.97;;;0.90;;
23088;SDS011;11713;48.506;8.966;2023-08-06T04:29:51;2.47;;;1.20;;
23088;SDS011;11713;48.506;8.966;2023-08-06T04:32:17;1.63;;;0.90;;
23088;SDS011;11713;48.506;8.966;2023-08-06T04:34:47;2.33;;;0.97;;
23088;SDS011;11713;48.506;8.966;2023-08-06T04:37:14;1.50;;;1.10;;
23088;SDS011;11713;48.506;8.966;2023-08-06T04:39:40;1.73;;;1.10;;
23088;SDS011;11713;48.506;8.966;2023-08-06T04:42:06;3.40;;;1.20;;
23088;SDS011;11713;48.506;8.966;2023-08-06T04:44:32;2.67;;;1.20;;
23088;SDS011;11713;48.506;8.966;2023-08-06T04:46:58;4.37;;;1.40;;
23088;SDS011;11713;48.506;8.966;2023-08-06T04:49:24;2.47;;;0.97;;
23088;SDS011;11713;48.506;8.966;2023-08-06T04:51:50;1.53;;;1.13;;
23088;SDS011;11713;48.506;8.966;2023-08-06T04:54:16;1.33;;;1.23;;
23088;SDS011;11713;48.506;8.966;2023-08-06T04:56:41;1.63;;;1.33;;
23088;SDS011;11713;48.506;8.966;2023-08-06T04:59:07;1.90;;;1.37;;
23088;SDS011;11713;48.506;8.966;2023-08-06T05:01:33;2.93;;;1.17;;
23088;SDS011;11713;48.506;8.966;2023-08-06T05:03:59;2.40;;;1.07;;
23088;SDS011;11713;48.506;8.966;2023-08-06T05:06:25;2.27;;;1.00;;
23088;SDS011;11713;48.506;8.966;2023-08-06T05:08:50;1.87;;;1.10;;
23088;SDS011;11713;48.506;8.966;2023-08-06T05:11:16;2.70;;;1.10;;
23088;SDS011;11713;48.506;8.966;2023-08-06T05:13:42;3.80;;;1.13;;
23088;SDS011;11713;48.506;8.966;2023-08-06T05:16:08;3.40;;;1.20;;
23088;SDS011;11713;48.506;8.966;2023-08-06T05:18:33;2.87;;;1.13;;
23088;SDS011;11713;48.506;8.966;2023-08-06T05:20:59;4.27;;;1.43;;
23088;SDS011;11713;48.506;8.966;2023-08-06T05:23:25;3.73;;;1.33;;
23088;SDS011;11713;48.506;8.966;2023-08-06T05:25:51;1.60;;;0.90;;
23088;SDS011;11713;48.506;8.966;2023-08-06T05:28:17;1.70;;;1.10;;
23088;SDS011;11713;48.506;8.966;2023-08-06T05:30:43;2.33;;;0.80;;
23088;SDS011;11713;48.506;8.966;2023-08-06T05:33:08;2.83;;;0.90;;
23088;SDS011;11713;48.506;8.966;2023-08-06T05:35:34;2.43;;;1.00;;
23088;SDS011;11713;48.506;8.966;2023-08-06T05:38:00;3.27;;;1.07;;
23088;SDS011;11713;48.506;8.966;2023-08-06T05:40:26;2.27;;;0.80;;
23088;SDS011;11713;48.506;8.966;2023-08-06T05:42:55;2.97;;;1.07;;
23088;SDS011;11713;48.506;8.966;2023-08-06T05:45:21;1.10;;;0.90;;
23088;SDS011;11713;48.506;8.966;2023-08-06T05:47:49;1.30;;;0.90;;
23088;SDS011;11713;48.506;8.966;2023-08-06T05:50:15;1.30;;;0.77;;
23088;SDS011;11713;48.506;8.966;2023-08-06T05:52:41;1.87;;;0.97;;
23088;SDS011;11713;48.506;8.966;2023-08-06T05:55:07;2.03;;;0.87;;
23088;SDS011;11713;48.506;8.966;2023-08-06T05:57:33;1.77;;;0.57;;
23088;SDS011;11713;48.506;8.966;2023-08-06T05:59:59;2.27;;;0.93;;
23088;SDS011;11713;48.506;8.966;2023-08-06T06:02:26;1.50;;;0.80;;
23088;SDS011;11713;48.506;8.966;2023-08-06T06:04:52;1.90;;;0.70;;
23088;SDS011;11713;48.506;8.966;2023-08-06T06:07:17;2.30;;;1.00;;
23088;SDS011;11713;48.506;8.966;2023-08-06T06:09:43;1.70;;;0.90;;
23088;SDS011;11713;48.506;8.966;2023-08-06T06:12:09;1.33;;;0.90;;
23088;SDS011;11713;48.506;8.966;2023-08-06T06:14:35;1.80;;;1.00;;
23088;SDS011;11713;48.506;8.966;2023-08-06T06:17:01;1.67;;;0.90;;
23088;SDS011;11713;48.506;8.966;2023-08-06T06:19:27;1.37;;;0.70;;
23088;SDS011;11713;48.506;8.966;2023-08-06T06:21:53;1.57;;;0.90;;
23088;SDS011;11713;48.506;8.966;2023-08-06T06:24:18;1.97;;;0.80;;
23088;SDS011;11713;48.506;8.966;2023-08-06T06:26:44;1.83;;;0.80;;
23088;SDS011;11713;48.506;8.966;2023-08-06T06:29:10;1.73;;;0.83;;
23088;SDS011;11713;48.506;8.966;2023-08-06T06:31:36;0.80;;;0.60;;
23088;SDS011;11713;48.506;8.966;2023-08-06T06:34:02;1.20;;;0.70;;
23088;SDS011;11713;48.506;8.966;2023-08-06T06:36:27;0.63;;;0.53;;
23088;SDS011;11713;48.506;8.966;2023-08-06T06:38:53;0.70;;;0.70;;
23088;SDS011;11713;48.506;8.966;2023-08-06T06:41:19;0.83;;;0.70;;
23088;SDS011;11713;48.506;8.966;2023-08-06T06:43:45;2.20;;;0.60;;
23088;SDS011;11713;48.506;8.966;2023-08-06T06:46:10;0.60;;;0.53;;
23088;SDS011;11713;48.506;8.966;2023-08-06T06:48:36;1.03;;;0.60;;
23088;SDS011;11713;48.506;8.966;2023-08-06T06:51:02;1.30;;;0.70;;
23088;SDS011;11713;48.506;8.966;2023-08-06T06:53:28;0.77;;;0.57;;
23088;SDS011;11713;48.506;8.966;2023-08-06T06:55:54;1.53;;;0.60;;
23088;SDS011;11713;48.506;8.966;2023-08-06T06:58:21;1.43;;;0.60;;
23088;SDS011;11713;48.506;8.966;2023-08-06T07:00:47;0.80;;;0.57;;
23088;SDS011;11713;48.506;8.966;2023-08-06T07:03:16;0.50;;;0.50;;
23088;SDS011;11713;48.506;8.966;2023-08-06T07:05:43;1.00;;;0.50;;
23088;SDS011;11713;48.506;8.966;2023-08-06T07:08:09;1.10;;;0.87;;
23088;SDS011;11713;48.506;8.966;2023-08-06T07:10:35;1.13;;;0.90;;
23088;SDS011;11713;48.506;8.966;2023-08-06T07:13:01;0.60;;;0.60;;
23088;SDS011;11713;48.506;8.966;2023-08-06T07:15:27;0.77;;;0.50;;
23088;SDS011;11713;48.506;8.966;2023-08-06T07:17:53;1.60;;;0.67;;
23088;SDS011;11713;48.506;8.966;2023-08-06T07:20:19;0.57;;;0.57;;
23088;SDS011;11713;48.506;8.966;2023-08-06T07:22:44;1.03;;;0.53;;
23088;SDS011;11713;48.506;8.966;2023-08-06T07:25:10;1.53;;;0.40;;
23088;SDS011;11713;48.506;8.966;2023-08-06T07:27:36;0.53;;;0.50;;
23088;SDS011;11713;48.506;8.966;2023-08-06T07:30:02;0.90;;;0.50;;
23088;SDS011;11713;48.506;8.966;2023-08-06T07:32:31;0.63;;;0.40;;
23088;SDS011;11713;48.506;8.966;2023-08-06T07:35:00;0.80;;;0.40;;
23088;SDS011;11713;48.506;8.966;2023-08-06T07:37:29;0.50;;;0.40;;
23088;SDS011;11713;48.506;8.966;2023-08-06T07:39:55;0.70;;;0.53;;
23088;SDS011;11713;48.506;8.966;2023-08-06T07:42:23;0.67;;;0.60;;
23088;SDS011;11713;48.506;8.966;2023-08-06T07:44:54;1.30;;;0.40;;
23088;SDS011;11713;48.506;8.966;2023-08-06T07:47:21;0.40;;;0.40;;
23088;SDS011;11713;48.506;8.966;2023-08-06T07:49:47;0.40;;;0.40;;
23088;SDS011;11713;48.506;8.966;2023-08-06T07:52:22;0.63;;;0.30;;
23088;SDS011;11713;48.506;8.966;2023-08-06T07:54:48;0.43;;;0.40;;
23088;SDS011;11713;48.506;8.966;2023-08-06T07:57:14;0.50;;;0.40;;
23088;SDS011;11713;48.506;8.966;2023-08-06T07:59:40;0.23;;;0.23;;
23088;SDS011;11713;48.506;8.966;2023-08-06T08:02:06;0.50;;;0.50;;
23088;SDS011;11713;48.506;8.966;2023-08-06T08:04:32;0.40;;;0.40;;
23088;SDS011;11713;48.506;8.966;2023-08-06T08:06:58;0.40;;;0.40;;
23088;SDS011;11713;48.506;8.966;2023-08-06T08:09:23;0.30;;;0.30;;
23088;SDS011;11713;48.506;8.966;2023-08-06T08:11:49;0.40;;;0.40;;
23088;SDS011;11713;48.506;8.966;2023-08-06T08:14:15;0.33;;;0.33;;
23088;SDS011;11713;48.506;8.966;2023-08-06T08:16:41;0.57;;;0.30;;
23088;SDS011;11713;48.506;8.966;2023-08-06T08:19:07;0.30;;;0.30;;
23088;SDS011;11713;48.506;8.966;2023-08-06T08:21:33;1.10;;;0.40;;
23088;SDS011;11713;48.506;8.966;2023-08-06T08:23:59;1.47;;;0.40;;
23088;SDS011;11713;48.506;8.966;2023-08-06T08:26:26;0.20;;;0.20;;
23088;SDS011;11713;48.506;8.966;2023-08-06T08:28:54;0.30;;;0.30;;
23088;SDS011;11713;48.506;8.966;2023-08-06T08:31:21;0.47;;;0.40;;
23088;SDS011;11713;48.506;8.966;2023-08-06T08:33:47;0.43;;;0.33;;
23088;SDS011;11713;48.506;8.966;2023-08-06T08:36:13;0.40;;;0.40;;
23088;SDS011;11713;48.506;8.966;2023-08-06T08:38:39;0.30;;;0.30;;
23088;SDS011;11713;48.506;8.966;2023-08-06T08:41:09;0.40;;;0.40;;
23088;SDS011;11713;48.506;8.966;2023-08-06T08:43:41;0.30;;;0.30;;
23088;SDS011;11713;48.506;8.966;2023-08-06T08:46:11;0.43;;;0.33;;
23088;SDS011;11713;48.506;8.966;2023-08-06T08:48:38;0.30;;;0.30;;
23088;SDS011;11713;48.506;8.966;2023-08-06T08:51:05;0.30;;;0.30;;
23088;SDS011;11713;48.506;8.966;2023-08-06T08:53:33;0.30;;;0.30;;
23088;SDS011;11713;48.506;8.966;2023-08-06T08:56:05;1.17;;;0.40;;
23088;SDS011;11713;48.506;8.966;2023-08-06T08:58:32;0.30;;;0.30;;
23088;SDS011;11713;48.506;8.966;2023-08-06T09:00:58;1.40;;;0.50;;
23088;SDS011;11713;48.506;8.966;2023-08-06T09:03:24;0.37;;;0.30;;
23088;SDS011;11713;48.506;8.966;2023-08-06T09:05:51;0.40;;;0.33;;
23088;SDS011;11713;48.506;8.966;2023-08-06T09:08:20;0.37;;;0.37;;
23088;SDS011;11713;48.506;8.966;2023-08-06T09:10:49;1.70;;;0.40;;
23088;SDS011;11713;48.506;8.966;2023-08-06T09:13:17;0.33;;;0.33;;
23088;SDS011;11713;48.506;8.966;2023-08-06T09:15:45;0.40;;;0.30;;
23088;SDS011;11713;48.506;8.966;2023-08-06T09:18:11;0.40;;;0.40;;
23088;SDS011;11713;48.506;8.966;2023-08-06T09:20:40;0.40;;;0.40;;
23088;SDS011;11713;48.506;8.966;2023-08-06T09:23:07;0.30;;;0.30;;
23088;SDS011;11713;48.506;8.966;2023-08-06T09:25:37;1.00;;;0.30;;
23088;SDS011;11713;48.506;8.966;2023-08-06T09:28:07;0.63;;;0.40;;
23088;SDS011;11713;48.506;8.966;2023-08-06T09:30:33;0.30;;;0.30;;
23088;SDS011;11713;48.506;8.966;2023-08-06T09:33:01;0.53;;;0.50;;
23088;SDS011;11713;48.506;8.966;2023-08-06T09:35:31;0.27;;;0.20;;
23088;SDS011;11713;48.506;8.966;2023-08-06T09:38:06;0.47;;;0.40;;
23088;SDS011;11713;48.506;8.966;2023-08-06T09:40:33;0.30;;;0.30;;
23088;SDS011;11713;48.506;8.966;2023-08-06T09:42:59;0.30;;;0.30;;
23088;SDS011;11713;48.506;8.966;2023-08-06T09:45:30;0.87;;;0.40;;
23088;SDS011;11713;48.506;8.966;2023-08-06T09:48:08;0.40;;;0.30;;
23088;SDS011;11713;48.506;8.966;2023-08-06T09:50:39;0.30;;;0.30;;
23088;SDS011;11713;48.506;8.966;2023-08-06T09:53:07;1.27;;;0.70;;
23088;SDS011;11713;48.506;8.966;2023-08-06T09:55:35;2.90;;;0.80;;
23088;SDS011;11713;48.506;8.966;2023-08-06T09:58:02;1.10;;;0.57;;
23088;SDS011;11713;48.506;8.966;2023-08-06T10:00:32;0.70;;;0.47;;
23088;SDS011;11713;48.506;8.966;2023-08-06T10:03:00;0.30;;;0.30;;
23088;SDS011;11713;48.506;8.966;2023-08-06T10:05:29;0.70;;;0.50;;
23088;SDS011;11713;48.506;8.966;2023-08-06T10:07:59;0.50;;;0.50;;
23088;SDS011;11713;48.506;8.966;2023-08-06T10:10:27;0.40;;;0.40;;
23088;SDS011;11713;48.506;8.966;2023-08-06T10:12:55;0.40;;;0.40;;
23088;SDS011;11713;48.506;8.966;2023-08-06T10:15:25;1.60;;;0.50;;
23088;SDS011;11713;48.506;8.966;2023-08-06T10:17:52;1.90;;;0.50;;
23088;SDS011;11713;48.506;8.966;2023-08-06T10:20:23;0.40;;;0.40;;
23088;SDS011;11713;48.506;8.966;2023-08-06T10:23:01;0.40;;;0.40;;
23088;SDS011;11713;48.506;8.966;2023-08-06T10:25:34;0.20;;;0.20;;
23088;SDS011;11713;48.506;8.966;2023-08-06T10:28:01;0.30;;;0.30;;
23088;SDS011;11713;48.506;8.966;2023-08-06T10:30:35;0.30;;;0.30;;
23088;SDS011;11713;48.506;8.966;2023-08-06T10:33:12;0.30;;;0.30;;
23088;SDS011;11713;48.506;8.966;2023-08-06T10:35:43;1.33;;;0.30;;
23088;SDS011;11713;48.506;8.966;2023-08-06T10:38:18;0.30;;;0.30;;
23088;SDS011;11713;48.506;8.966;2023-08-06T10:45:58;0.30;;;0.30;;
23088;SDS011;11713;48.506;8.966;2023-08-06T10:51:11;0.43;;;0.30;;
23088;SDS011;11713;48.506;8.966;2023-08-06T10:53:46;1.23;;;0.30;;
23088;SDS011;11713;48.506;8.966;2023-08-06T10:58:40;0.30;;;0.30;;
23088;SDS011;11713;48.506;8.966;2023-08-06T11:01:09;1.70;;;0.23;;
23088;SDS011;11713;48.506;8.966;2023-08-06T11:03:38;0.40;;;0.40;;
23088;SDS011;11713;48.506;8.966;2023-08-06T11:06:07;0.73;;;0.30;;
23088;SDS011;11713;48.506;8.966;2023-08-06T11:08:34;0.60;;;0.40;;
23088;SDS011;11713;48.506;8.966;2023-08-06T11:11:11;0.60;;;0.40;;
23088;SDS011;11713;48.506;8.966;2023-08-06T11:13:39;0.30;;;0.30;;
23088;SDS011;11713;48.506;8.966;2023-08-06T11:16:05;0.53;;;0.30;;
23088;SDS011;11713;48.506;8.966;2023-08-06T11:18:32;0.47;;;0.40;;
23088;SDS011;11713;48.506;8.966;2023-08-06T11:20:59;0.50;;;0.40;;
23088;SDS011;11713;48.506;8.966;2023-08-06T11:23:29;0.40;;;0.40;;
23088;SDS011;11713;48.506;8.966;2023-08-06T11:25:58;0.83;;;0.43;;
23088;SDS011;11713;48.506;8.966;2023-08-06T11:28:24;0.73;;;0.37;;
23088;SDS011;11713;48.506;8.966;2023-08-06T11:30:53;1.60;;;0.50;;
23088;SDS011;11713;48.506;8.966;2023-08-06T11:33:24;0.60;;;0.60;;
23088;SDS011;11713;48.506;8.966;2023-08-06T11:35:52;0.40;;;0.40;;
23088;SDS011;11713;48.506;8.966;2023-08-06T11:38:21;0.77;;;0.57;;
23088;SDS011;11713;48.506;8.966;2023-08-06T11:40:53;1.63;;;0.60;;
23088;SDS011;11713;48.506;8.966;2023-08-06T11:43:19;0.70;;;0.50;;
23088;SDS011;11713;48.506;8.966;2023-08-06T11:45:50;0.97;;;0.40;;
23088;SDS011;11713;48.506;8.966;2023-08-06T11:48:19;0.60;;;0.50;;
23088;SDS011;11713;48.506;8.966;2023-08-06T11:50:48;1.80;;;0.50;;
23088;SDS011;11713;48.506;8.966;2023-08-06T11:53:14;0.50;;;0.50;;
23088;SDS011;11713;48.506;8.966;2023-08-06T11:55:40;0.50;;;0.50;;
23088;SDS011;11713;48.506;8.966;2023-08-06T11:58:06;0.40;;;0.40;;
23088;SDS011;11713;48.506;8.966;2023-08-06T12:00:33;0.90;;;0.60;;
23088;SDS011;11713;48.506;8.966;2023-08-06T12:02:59;0.40;;;0.40;;
23088;SDS011;11713;48.506;8.966;2023-08-06T12:05:31;0.50;;;0.50;;
23088;SDS011;11713;48.506;8.966;2023-08-06T12:07:59;0.47;;;0.47;;
23088;SDS011;11713;48.506;8.966;2023-08-06T12:10:28;0.80;;;0.70;;
23088;SDS011;11713;48.506;8.966;2023-08-06T12:12:55;0.63;;;0.60;;
23088;SDS011;11713;48.506;8.966;2023-08-06T12:15:22;1.07;;;0.83;;
23088;SDS011;11713;48.506;8.966;2023-08-06T12:17:49;1.20;;;0.90;;
23088;SDS011;11713;48.506;8.966;2023-08-06T12:20:15;2.30;;;1.10;;
23088;SDS011;11713;48.506;8.966;2023-08-06T12:22:41;1.20;;;1.00;;
23088;SDS011;11713;48.506;8.966;2023-08-06T12:25:08;2.07;;;1.00;;
23088;SDS011;11713;48.506;8.966;2023-08-06T12:27:39;1.07;;;0.97;;
23088;SDS011;11713;48.506;8.966;2023-08-06T12:30:12;1.63;;;0.87;;
23088;SDS011;11713;48.506;8.966;2023-08-06T12:32:38;1.53;;;1.10;;
23088;SDS011;11713;48.506;8.966;2023-08-06T12:35:04;0.87;;;0.80;;
23088;SDS011;11713;48.506;8.966;2023-08-06T12:37:33;1.53;;;0.80;;
23088;SDS011;11713;48.506;8.966;2023-08-06T12:39:59;1.23;;;0.80;;
23088;SDS011;11713;48.506;8.966;2023-08-06T12:42:25;1.10;;;0.80;;
23088;SDS011;11713;48.506;8.966;2023-08-06T12:44:51;1.67;;;0.73;;
23088;SDS011;11713;48.506;8.966;2023-08-06T12:47:18;0.73;;;0.73;;
23088;SDS011;11713;48.506;8.966;2023-08-06T12:49:45;0.83;;;0.83;;
23088;SDS011;11713;48.506;8.966;2023-08-06T12:52:12;1.00;;;0.80;;
23088;SDS011;11713;48.506;8.966;2023-08-06T12:54:42;0.80;;;0.80;;
23088;SDS011;11713;48.506;8.966;2023-08-06T12:57:11;0.90;;;0.90;;
23088;SDS011;11713;48.506;8.966;2023-08-06T12:59:39;1.50;;;0.60;;
23088;SDS011;11713;48.506;8.966;2023-08-06T13:02:06;1.30;;;1.03;;
23088;SDS011;11713;48.506;8.966;2023-08-06T13:04:33;1.90;;;0.70;;
23088;SDS011;11713;48.506;8.966;2023-08-06T13:06:59;1.17;;;0.60;;
23088;SDS011;11713;48.506;8.966;2023-08-06T13:09:25;0.67;;;0.67;;
23088;SDS011;11713;48.506;8.966;2023-08-06T13:11:52;3.03;;;0.80;;
23088;SDS011;11713;48.506;8.966;2023-08-06T13:14:18;0.67;;;0.63;;
23088;SDS011;11713;48.506;8.966;2023-08-06T13:16:44;0.67;;;0.60;;
23088;SDS011;11713;48.506;8.966;2023-08-06T13:19:10;1.07;;;0.80;;
23088;SDS011;11713;48.506;8.966;2023-08-06T13:24:07;0.60;;;0.60;;
23088;SDS011;11713;48.506;8.966;2023-08-06T13:26:34;1.17;;;0.50;;
23088;SDS011;11713;48.506;8.966;2023-08-06T13:29:00;0.90;;;0.70;;
23088;SDS011;11713;48.506;8.966;2023-08-06T13:31:27;1.50;;;0.77;;
23088;SDS011;11713;48.506;8.966;2023-08-06T13:33:54;0.60;;;0.60;;
23088;SDS011;11713;48.506;8.966;2023-08-06T13:36:21;0.60;;;0.60;;
23088;SDS011;11713;48.506;8.966;2023-08-06T13:38:48;0.70;;;0.70;;
23088;SDS011;11713;48.506;8.966;2023-08-06T13:41:14;1.53;;;1.40;;
23088;SDS011;11713;48.506;8.966;2023-08-06T13:43:40;0.70;;;0.70;;
23088;SDS011;11713;48.506;8.966;2023-08-06T13:46:06;1.43;;;0.70;;
23088;SDS011;11713;48.506;8.966;2023-08-06T13:48:32;0.50;;;0.50;;
23088;SDS011;11713;48.506;8.966;2023-08-06T13:50:57;0.80;;;0.50;;
23088;SDS011;11713;48.506;8.966;2023-08-06T13:53:23;0.50;;;0.50;;
23088;SDS011;11713;48.506;8.966;2023-08-06T13:55:55;2.00;;;0.40;;
23088;SDS011;11713;48.506;8.966;2023-08-06T13:58:22;0.43;;;0.40;;
23088;SDS011;11713;48.506;8.966;2023-08-06T14:00:50;1.07;;;0.50;;
23088;SDS011;11713;48.506;8.966;2023-08-06T14:03:18;0.60;;;0.60;;
23088;SDS011;11713;48.506;8.966;2023-08-06T14:05:44;0.60;;;0.60;;
23088;SDS011;11713;48.506;8.966;2023-08-06T14:08:10;1.58;;;0.50;;
23088;SDS011;11713;48.506;8.966;2023-08-06T14:10:35;0.50;;;0.50;;
23088;SDS011;11713;48.506;8.966;2023-08-06T14:13:01;0.65;;;0.45;;
23088;SDS011;11713;48.506;8.966;2023-08-06T14:15:27;1.40;;;0.57;;
23088;SDS011;11713;48.506;8.966;2023-08-06T14:17:53;0.70;;;0.60;;
23088;SDS011;11713;48.506;8.966;2023-08-06T14:20:19;0.50;;;0.50;;
23088;SDS011;11713;48.506;8.966;2023-08-06T14:22:45;0.50;;;0.40;;
23088;SDS011;11713;48.506;8.966;2023-08-06T14:25:10;0.50;;;0.50;;
23088;SDS011;11713;48.506;8.966;2023-08-06T14:27:36;0.50;;;0.40;;
23088;SDS011;11713;48.506;8.966;2023-08-06T14:30:05;0.60;;;0.50;;
23088;SDS011;11713;48.506;8.966;2023-08-06T14:32:31;1.17;;;0.47;;
23088;SDS011;11713;48.506;8.966;2023-08-06T14:34:57;2.23;;;0.70;;
23088;SDS011;11713;48.506;8.966;2023-08-06T14:37:24;0.50;;;0.50;;
23088;SDS011;11713;48.506;8.966;2023-08-06T14:39:52;0.40;;;0.40;;
23088;SDS011;11713;48.506;8.966;2023-08-06T14:42:25;0.40;;;0.40;;
23088;SDS011;11713;48.506;8.966;2023-08-06T14:44:52;0.63;;;0.60;;
23088;SDS011;11713;48.506;8.966;2023-08-06T14:47:18;0.63;;;0.50;;
23088;SDS011;11713;48.506;8.966;2023-08-06T14:49:44;0.70;;;0.53;;
23088;SDS011;11713;48.506;8.966;2023-08-06T14:52:10;0.60;;;0.50;;
23088;SDS011;11713;48.506;8.966;2023-08-06T14:54:35;0.30;;;0.30;;
23088;SDS011;11713;48.506;8.966;2023-08-06T14:57:01;0.30;;;0.30;;
23088;SDS011;11713;48.506;8.966;2023-08-06T14:59:27;0.40;;;0.40;;
23088;SDS011;11713;48.506;8.966;2023-08-06T15:01:53;1.83;;;0.50;;
23088;SDS011;11713;48.506;8.966;2023-08-06T15:04:19;0.50;;;0.50;;
23088;SDS011;11713;48.506;8.966;2023-08-06T15:06:45;0.50;;;0.50;;
23088;SDS011;11713;48.506;8.966;2023-08-06T15:09:11;0.70;;;0.70;;